sensor_id;sensor_type;location;lat;lon;timestamp;P1;durP1;ratioP1;P2;durP2;ratioP2
6832;SDS011;3454;42.654;23.378;2023-03-15T00:00:51;5.57;;;2.80;;
6832;SDS011;3454;42.654;23.378;2023-03-15T00:03:18;6.57;;;3.23;;
6832;SDS011;3454;42.654;23.378;2023-03-15T00:05:45;5.03;;;3.00;;
6832;SDS011;3454;42.654;23.378;2023-03-15T00:08:12;6.57;;;2.97;;
6832;SDS011;3454;42.654;23.378;2023-03-15T00:10:41;5.00;;;3.00;;
6832;SDS011;3454;42.654;23.378;2023-03-15T00:13:08;5.60;;;3.00;;
6832;SDS011;3454;42.654;23.378;2023-03-15T00:15:35;5.00;;;2.53;;
6832;SDS011;3454;42.654;23.378;2023-03-15T00:18:01;3.73;;;2.70;;
6832;SDS011;3454;42.654;23.378;2023-03-15T00:20:27;4.93;;;2.43;;
6832;SDS011;3454;42.654;23.378;2023-03-15T00:22:53;5.57;;;2.60;;
6832;SDS011;3454;42.654;23.378;2023-03-15T00:25:19;4.37;;;2.70;;
6832;SDS011;3454;42.654;23.378;2023-03-15T00:27:45;3.87;;;2.67;;
6832;SDS011;3454;42.654;23.378;2023-03-15T00:30:10;4.57;;;2.33;;
6832;SDS011;3454;42.654;23.378;2023-03-15T00:32:36;4.20;;;2.40;;
6832;SDS011;3454;42.654;23.378;2023-03-15T00:35:02;4.33;;;2.63;;
6832;SDS011;3454;42.654;23.378;2023-03-15T00:37:28;4.03;;;2.53;;
6832;SDS011;3454;42.654;23.378;2023-03-15T00:39:55;3.03;;;2.23;;
6832;SDS011;3454;42.654;23.378;2023-03-15T00:42:20;4.37;;;2.60;;
6832;SDS011;3454;42.654;23.378;2023-03-15T00:44:46;3.47;;;2.50;;
6832;SDS011;3454;42.654;23.378;2023-03-15T00:47:12;3.03;;;2.40;;
6832;SDS011;3454;42.654;23.378;2023-03-15T00:49:38;3.47;;;2.33;;
6832;SDS011;3454;42.654;23.378;2023-03-15T00:52:05;6.83;;;2.70;;
6832;SDS011;3454;42.654;23.378;2023-03-15T00:54:31;5.60;;;3.23;;
6832;SDS011;3454;42.654;23.378;2023-03-15T00:56:58;9.03;;;6.27;;
6832;SDS011;3454;42.654;23.378;2023-03-15T00:59:24;11.73;;;6.77;;
6832;SDS011;3454;42.654;23.378;2023-03-15T01:01:52;9.40;;;6.20;;
6832;SDS011;3454;42.654;23.378;2023-03-15T01:04:17;9.27;;;5.77;;
6832;SDS011;3454;42.654;23.378;2023-03-15T01:06:42;11.83;;;6.70;;
6832;SDS011;3454;42.654;23.378;2023-03-15T01:09:08;11.07;;;6.40;;
6832;SDS011;3454;42.654;23.378;2023-03-15T01:11:34;9.60;;;5.83;;
6832;SDS011;3454;42.654;23.378;2023-03-15T01:14:00;12.93;;;6.03;;
6832;SDS011;3454;42.654;23.378;2023-03-15T01:16:27;11.07;;;6.23;;
6832;SDS011;3454;42.654;23.378;2023-03-15T01:18:53;13.43;;;6.43;;
6832;SDS011;3454;42.654;23.378;2023-03-15T01:21:20;11.73;;;6.13;;
6832;SDS011;3454;42.654;23.378;2023-03-15T01:23:47;7.60;;;5.00;;
6832;SDS011;3454;42.654;23.378;2023-03-15T01:26:13;10.00;;;5.83;;
6832;SDS011;3454;42.654;23.378;2023-03-15T01:28:40;8.17;;;6.33;;
6832;SDS011;3454;42.654;23.378;2023-03-15T01:31:07;11.17;;;6.87;;
6832;SDS011;3454;42.654;23.378;2023-03-15T01:33:39;10.80;;;7.17;;
6832;SDS011;3454;42.654;23.378;2023-03-15T01:36:05;10.40;;;6.33;;
6832;SDS011;3454;42.654;23.378;2023-03-15T01:38:32;14.67;;;6.43;;
6832;SDS011;3454;42.654;23.378;2023-03-15T01:40:58;12.87;;;6.43;;
6832;SDS011;3454;42.654;23.378;2023-03-15T01:43:28;13.07;;;7.27;;
6832;SDS011;3454;42.654;23.378;2023-03-15T01:46:01;12.23;;;6.73;;
6832;SDS011;3454;42.654;23.378;2023-03-15T01:51:19;12.13;;;6.53;;
6832;SDS011;3454;42.654;23.378;2023-03-15T01:53:50;10.03;;;6.20;;
6832;SDS011;3454;42.654;23.378;2023-03-15T01:56:21;9.90;;;7.00;;
6832;SDS011;3454;42.654;23.378;2023-03-15T01:58:48;10.43;;;6.57;;
6832;SDS011;3454;42.654;23.378;2023-03-15T02:01:16;14.07;;;6.37;;
6832;SDS011;3454;42.654;23.378;2023-03-15T02:03:44;12.13;;;6.70;;
6832;SDS011;3454;42.654;23.378;2023-03-15T02:06:15;10.17;;;6.27;;
6832;SDS011;3454;42.654;23.378;2023-03-15T02:08:48;10.23;;;5.80;;
6832;SDS011;3454;42.654;23.378;2023-03-15T02:11:16;8.87;;;6.03;;
6832;SDS011;3454;42.654;23.378;2023-03-15T02:13:44;9.03;;;5.00;;
6832;SDS011;3454;42.654;23.378;2023-03-15T02:16:12;4.60;;;3.23;;
6832;SDS011;3454;42.654;23.378;2023-03-15T02:18:38;5.83;;;3.30;;
6832;SDS011;3454;42.654;23.378;2023-03-15T02:24:00;5.60;;;3.03;;
6832;SDS011;3454;42.654;23.378;2023-03-15T02:26:38;3.77;;;2.70;;
6832;SDS011;3454;42.654;23.378;2023-03-15T02:29:08;3.30;;;2.17;;
6832;SDS011;3454;42.654;23.378;2023-03-15T02:31:34;4.30;;;2.67;;
6832;SDS011;3454;42.654;23.378;2023-03-15T02:34:02;5.23;;;3.30;;
6832;SDS011;3454;42.654;23.378;2023-03-15T02:36:31;6.23;;;3.10;;
6832;SDS011;3454;42.654;23.378;2023-03-15T02:38:58;4.07;;;2.93;;
6832;SDS011;3454;42.654;23.378;2023-03-15T02:43:57;5.93;;;2.70;;
6832;SDS011;3454;42.654;23.378;2023-03-15T02:46:43;4.13;;;2.70;;
6832;SDS011;3454;42.654;23.378;2023-03-15T02:49:12;5.83;;;3.13;;
6832;SDS011;3454;42.654;23.378;2023-03-15T02:51:40;5.43;;;3.40;;
6832;SDS011;3454;42.654;23.378;2023-03-15T02:54:06;6.07;;;3.20;;
6832;SDS011;3454;42.654;23.378;2023-03-15T02:56:31;8.50;;;3.77;;
6832;SDS011;3454;42.654;23.378;2023-03-15T02:58:57;4.53;;;3.53;;
6832;SDS011;3454;42.654;23.378;2023-03-15T03:01:23;6.60;;;3.93;;
6832;SDS011;3454;42.654;23.378;2023-03-15T03:03:49;9.23;;;3.73;;
6832;SDS011;3454;42.654;23.378;2023-03-15T03:06:14;6.67;;;3.27;;
6832;SDS011;3454;42.654;23.378;2023-03-15T03:08:41;4.87;;;3.30;;
6832;SDS011;3454;42.654;23.378;2023-03-15T03:11:11;7.73;;;3.33;;
6832;SDS011;3454;42.654;23.378;2023-03-15T03:13:40;5.73;;;3.70;;
6832;SDS011;3454;42.654;23.378;2023-03-15T03:16:06;7.13;;;3.77;;
6832;SDS011;3454;42.654;23.378;2023-03-15T03:18:33;6.90;;;3.53;;
6832;SDS011;3454;42.654;23.378;2023-03-15T03:21:02;7.83;;;4.53;;
6832;SDS011;3454;42.654;23.378;2023-03-15T03:23:30;6.67;;;3.90;;
6832;SDS011;3454;42.654;23.378;2023-03-15T03:25:58;4.07;;;3.27;;
6832;SDS011;3454;42.654;23.378;2023-03-15T03:28:25;5.97;;;3.50;;
6832;SDS011;3454;42.654;23.378;2023-03-15T03:30:54;6.07;;;3.50;;
6832;SDS011;3454;42.654;23.378;2023-03-15T03:33:20;6.97;;;3.83;;
6832;SDS011;3454;42.654;23.378;2023-03-15T03:35:47;6.30;;;3.83;;
6832;SDS011;3454;42.654;23.378;2023-03-15T03:38:13;6.03;;;4.07;;
6832;SDS011;3454;42.654;23.378;2023-03-15T03:40:39;8.67;;;3.50;;
6832;SDS011;3454;42.654;23.378;2023-03-15T03:43:05;8.67;;;3.50;;
6832;SDS011;3454;42.654;23.378;2023-03-15T03:45:32;4.90;;;3.37;;
6832;SDS011;3454;42.654;23.378;2023-03-15T03:47:57;9.07;;;3.97;;
6832;SDS011;3454;42.654;23.378;2023-03-15T03:50:23;7.60;;;3.30;;
6832;SDS011;3454;42.654;23.378;2023-03-15T03:52:49;6.23;;;4.17;;
6832;SDS011;3454;42.654;23.378;2023-03-15T03:55:14;10.83;;;4.30;;
6832;SDS011;3454;42.654;23.378;2023-03-15T03:57:40;5.57;;;3.43;;
6832;SDS011;3454;42.654;23.378;2023-03-15T04:00:06;4.90;;;3.20;;
6832;SDS011;3454;42.654;23.378;2023-03-15T04:02:34;4.93;;;4.00;;
6832;SDS011;3454;42.654;23.378;2023-03-15T04:05:00;6.90;;;3.60;;
6832;SDS011;3454;42.654;23.378;2023-03-15T04:07:26;9.20;;;4.00;;
6832;SDS011;3454;42.654;23.378;2023-03-15T04:09:51;10.47;;;3.97;;
6832;SDS011;3454;42.654;23.378;2023-03-15T04:12:17;7.80;;;4.03;;
6832;SDS011;3454;42.654;23.378;2023-03-15T04:14:42;6.73;;;4.27;;
6832;SDS011;3454;42.654;23.378;2023-03-15T04:17:08;5.30;;;3.17;;
6832;SDS011;3454;42.654;23.378;2023-03-15T04:19:34;6.13;;;3.90;;
6832;SDS011;3454;42.654;23.378;2023-03-15T04:21:59;6.10;;;3.77;;
6832;SDS011;3454;42.654;23.378;2023-03-15T04:24:32;5.70;;;3.80;;
6832;SDS011;3454;42.654;23.378;2023-03-15T04:26:59;7.17;;;3.40;;
6832;SDS011;3454;42.654;23.378;2023-03-15T04:29:24;6.30;;;3.27;;
6832;SDS011;3454;42.654;23.378;2023-03-15T04:31:50;4.67;;;3.40;;
6832;SDS011;3454;42.654;23.378;2023-03-15T04:34:15;5.30;;;3.03;;
6832;SDS011;3454;42.654;23.378;2023-03-15T04:36:40;8.33;;;2.77;;
6832;SDS011;3454;42.654;23.378;2023-03-15T04:39:06;4.93;;;3.43;;
6832;SDS011;3454;42.654;23.378;2023-03-15T04:41:34;5.33;;;3.63;;
6832;SDS011;3454;42.654;23.378;2023-03-15T04:44:02;7.60;;;2.97;;
6832;SDS011;3454;42.654;23.378;2023-03-15T04:46:32;6.03;;;2.93;;
6832;SDS011;3454;42.654;23.378;2023-03-15T04:48:57;8.93;;;2.93;;
6832;SDS011;3454;42.654;23.378;2023-03-15T04:51:23;9.87;;;3.50;;
6832;SDS011;3454;42.654;23.378;2023-03-15T04:53:49;14.67;;;4.33;;
6832;SDS011;3454;42.654;23.378;2023-03-15T04:56:15;7.97;;;3.50;;
6832;SDS011;3454;42.654;23.378;2023-03-15T04:58:40;9.00;;;3.37;;
6832;SDS011;3454;42.654;23.378;2023-03-15T05:01:06;7.17;;;3.57;;
6832;SDS011;3454;42.654;23.378;2023-03-15T05:03:31;9.27;;;3.83;;
6832;SDS011;3454;42.654;23.378;2023-03-15T05:05:57;6.20;;;3.90;;
6832;SDS011;3454;42.654;23.378;2023-03-15T05:08:22;9.67;;;4.20;;
6832;SDS011;3454;42.654;23.378;2023-03-15T05:10:47;7.60;;;3.73;;
6832;SDS011;3454;42.654;23.378;2023-03-15T05:13:13;7.77;;;3.60;;
6832;SDS011;3454;42.654;23.378;2023-03-15T05:15:38;5.17;;;3.90;;
6832;SDS011;3454;42.654;23.378;2023-03-15T05:18:04;5.90;;;3.37;;
6832;SDS011;3454;42.654;23.378;2023-03-15T05:20:30;6.10;;;3.30;;
6832;SDS011;3454;42.654;23.378;2023-03-15T05:22:56;6.97;;;3.90;;
6832;SDS011;3454;42.654;23.378;2023-03-15T05:25:21;10.10;;;4.00;;
6832;SDS011;3454;42.654;23.378;2023-03-15T05:27:48;10.43;;;3.57;;
6832;SDS011;3454;42.654;23.378;2023-03-15T05:30:13;5.73;;;2.97;;
6832;SDS011;3454;42.654;23.378;2023-03-15T05:32:40;8.17;;;3.80;;
6832;SDS011;3454;42.654;23.378;2023-03-15T05:35:09;8.13;;;3.37;;
6832;SDS011;3454;42.654;23.378;2023-03-15T05:37:35;8.10;;;3.83;;
6832;SDS011;3454;42.654;23.378;2023-03-15T05:40:00;7.93;;;3.80;;
6832;SDS011;3454;42.654;23.378;2023-03-15T05:42:27;7.40;;;3.30;;
6832;SDS011;3454;42.654;23.378;2023-03-15T05:44:53;5.07;;;3.90;;
6832;SDS011;3454;42.654;23.378;2023-03-15T05:47:20;7.97;;;4.10;;
6832;SDS011;3454;42.654;23.378;2023-03-15T05:49:46;8.90;;;4.07;;
6832;SDS011;3454;42.654;23.378;2023-03-15T05:52:12;5.57;;;4.10;;
6832;SDS011;3454;42.654;23.378;2023-03-15T05:54:37;10.37;;;5.07;;
6832;SDS011;3454;42.654;23.378;2023-03-15T05:57:03;9.83;;;4.73;;
6832;SDS011;3454;42.654;23.378;2023-03-15T05:59:28;11.43;;;5.17;;
6832;SDS011;3454;42.654;23.378;2023-03-15T06:01:54;11.20;;;5.20;;
6832;SDS011;3454;42.654;23.378;2023-03-15T06:04:20;14.50;;;4.90;;
6832;SDS011;3454;42.654;23.378;2023-03-15T06:06:45;8.87;;;5.07;;
6832;SDS011;3454;42.654;23.378;2023-03-15T06:09:11;11.67;;;5.07;;
6832;SDS011;3454;42.654;23.378;2023-03-15T06:11:36;12.47;;;5.63;;
6832;SDS011;3454;42.654;23.378;2023-03-15T06:14:02;13.43;;;8.40;;
6832;SDS011;3454;42.654;23.378;2023-03-15T06:16:28;15.17;;;6.10;;
6832;SDS011;3454;42.654;23.378;2023-03-15T06:18:53;16.67;;;6.27;;
6832;SDS011;3454;42.654;23.378;2023-03-15T06:21:19;9.60;;;6.03;;
6832;SDS011;3454;42.654;23.378;2023-03-15T06:23:44;14.83;;;6.87;;
6832;SDS011;3454;42.654;23.378;2023-03-15T06:26:09;13.87;;;7.23;;
6832;SDS011;3454;42.654;23.378;2023-03-15T06:28:35;11.33;;;5.07;;
6832;SDS011;3454;42.654;23.378;2023-03-15T06:31:10;7.13;;;4.10;;
6832;SDS011;3454;42.654;23.378;2023-03-15T06:33:37;5.90;;;3.00;;
6832;SDS011;3454;42.654;23.378;2023-03-15T06:36:03;7.33;;;4.00;;
6832;SDS011;3454;42.654;23.378;2023-03-15T06:38:30;5.80;;;3.90;;
6832;SDS011;3454;42.654;23.378;2023-03-15T06:40:56;7.27;;;3.67;;
6832;SDS011;3454;42.654;23.378;2023-03-15T06:43:25;8.40;;;3.73;;
6832;SDS011;3454;42.654;23.378;2023-03-15T06:45:51;9.93;;;3.87;;
6832;SDS011;3454;42.654;23.378;2023-03-15T06:48:17;4.87;;;3.53;;
6832;SDS011;3454;42.654;23.378;2023-03-15T06:50:43;10.37;;;4.77;;
6832;SDS011;3454;42.654;23.378;2023-03-15T06:53:09;6.27;;;4.47;;
6832;SDS011;3454;42.654;23.378;2023-03-15T06:55:34;10.50;;;5.93;;
6832;SDS011;3454;42.654;23.378;2023-03-15T06:57:59;10.80;;;5.53;;
6832;SDS011;3454;42.654;23.378;2023-03-15T07:00:25;12.10;;;6.23;;
6832;SDS011;3454;42.654;23.378;2023-03-15T07:02:50;11.97;;;5.40;;
6832;SDS011;3454;42.654;23.378;2023-03-15T07:05:16;11.23;;;5.70;;
6832;SDS011;3454;42.654;23.378;2023-03-15T07:07:41;14.83;;;5.93;;
6832;SDS011;3454;42.654;23.378;2023-03-15T07:10:07;15.53;;;5.60;;
6832;SDS011;3454;42.654;23.378;2023-03-15T07:12:33;12.60;;;6.03;;
6832;SDS011;3454;42.654;23.378;2023-03-15T07:14:58;12.53;;;6.83;;
6832;SDS011;3454;42.654;23.378;2023-03-15T07:17:24;11.37;;;5.53;;
6832;SDS011;3454;42.654;23.378;2023-03-15T07:19:49;12.40;;;5.57;;
6832;SDS011;3454;42.654;23.378;2023-03-15T07:22:16;13.33;;;5.70;;
6832;SDS011;3454;42.654;23.378;2023-03-15T07:24:42;9.37;;;5.27;;
6832;SDS011;3454;42.654;23.378;2023-03-15T07:27:10;8.20;;;4.90;;
6832;SDS011;3454;42.654;23.378;2023-03-15T07:29:36;10.53;;;5.13;;
6832;SDS011;3454;42.654;23.378;2023-03-15T07:32:02;9.00;;;4.67;;
6832;SDS011;3454;42.654;23.378;2023-03-15T07:34:28;9.63;;;4.27;;
6832;SDS011;3454;42.654;23.378;2023-03-15T07:36:53;8.07;;;4.53;;
6832;SDS011;3454;42.654;23.378;2023-03-15T07:39:18;8.27;;;4.37;;
6832;SDS011;3454;42.654;23.378;2023-03-15T07:41:44;11.93;;;4.43;;
6832;SDS011;3454;42.654;23.378;2023-03-15T07:44:10;9.47;;;4.47;;
6832;SDS011;3454;42.654;23.378;2023-03-15T07:46:35;5.20;;;3.83;;
6832;SDS011;3454;42.654;23.378;2023-03-15T07:49:01;9.47;;;4.47;;
6832;SDS011;3454;42.654;23.378;2023-03-15T07:51:26;10.00;;;4.27;;
6832;SDS011;3454;42.654;23.378;2023-03-15T07:53:51;9.50;;;4.20;;
6832;SDS011;3454;42.654;23.378;2023-03-15T07:56:17;10.83;;;3.40;;
6832;SDS011;3454;42.654;23.378;2023-03-15T07:58:43;6.57;;;3.47;;
6832;SDS011;3454;42.654;23.378;2023-03-15T08:01:08;7.87;;;3.77;;
6832;SDS011;3454;42.654;23.378;2023-03-15T08:03:34;6.93;;;4.70;;
6832;SDS011;3454;42.654;23.378;2023-03-15T08:06:00;10.93;;;5.13;;
6832;SDS011;3454;42.654;23.378;2023-03-15T08:08:25;9.00;;;5.27;;
6832;SDS011;3454;42.654;23.378;2023-03-15T08:10:51;10.50;;;4.30;;
6832;SDS011;3454;42.654;23.378;2023-03-15T08:13:16;15.07;;;4.77;;
6832;SDS011;3454;42.654;23.378;2023-03-15T08:15:44;8.37;;;4.57;;
6832;SDS011;3454;42.654;23.378;2023-03-15T08:18:11;8.47;;;4.57;;
6832;SDS011;3454;42.654;23.378;2023-03-15T08:20:36;14.10;;;4.23;;
6832;SDS011;3454;42.654;23.378;2023-03-15T08:23:02;5.97;;;3.50;;
6832;SDS011;3454;42.654;23.378;2023-03-15T08:25:27;7.33;;;4.50;;
6832;SDS011;3454;42.654;23.378;2023-03-15T08:27:53;7.67;;;4.03;;
6832;SDS011;3454;42.654;23.378;2023-03-15T08:30:19;6.00;;;3.10;;
6832;SDS011;3454;42.654;23.378;2023-03-15T08:32:45;9.63;;;3.03;;
6832;SDS011;3454;42.654;23.378;2023-03-15T08:35:14;5.10;;;3.13;;
6832;SDS011;3454;42.654;23.378;2023-03-15T08:37:47;6.33;;;3.70;;
6832;SDS011;3454;42.654;23.378;2023-03-15T08:40:22;4.37;;;3.43;;
6832;SDS011;3454;42.654;23.378;2023-03-15T08:42:48;5.37;;;3.17;;
6832;SDS011;3454;42.654;23.378;2023-03-15T08:45:14;6.03;;;3.40;;
6832;SDS011;3454;42.654;23.378;2023-03-15T08:47:40;5.23;;;3.23;;
6832;SDS011;3454;42.654;23.378;2023-03-15T08:50:09;6.57;;;3.13;;
6832;SDS011;3454;42.654;23.378;2023-03-15T08:52:36;5.43;;;3.27;;
6832;SDS011;3454;42.654;23.378;2023-03-15T08:55:03;6.23;;;3.07;;
6832;SDS011;3454;42.654;23.378;2023-03-15T08:57:29;5.57;;;3.27;;
6832;SDS011;3454;42.654;23.378;2023-03-15T08:59:56;5.33;;;2.40;;
6832;SDS011;3454;42.654;23.378;2023-03-15T09:02:23;5.53;;;3.30;;
6832;SDS011;3454;42.654;23.378;2023-03-15T09:04:48;6.97;;;3.43;;
6832;SDS011;3454;42.654;23.378;2023-03-15T09:07:15;4.77;;;2.93;;
6832;SDS011;3454;42.654;23.378;2023-03-15T09:09:40;3.70;;;2.77;;
6832;SDS011;3454;42.654;23.378;2023-03-15T09:12:06;3.50;;;2.80;;
6832;SDS011;3454;42.654;23.378;2023-03-15T09:14:32;4.20;;;3.03;;
6832;SDS011;3454;42.654;23.378;2023-03-15T09:16:58;6.33;;;2.97;;
6832;SDS011;3454;42.654;23.378;2023-03-15T09:19:24;6.70;;;3.07;;
6832;SDS011;3454;42.654;23.378;2023-03-15T09:21:49;7.50;;;3.63;;
6832;SDS011;3454;42.654;23.378;2023-03-15T09:24:15;7.47;;;3.00;;
6832;SDS011;3454;42.654;23.378;2023-03-15T09:26:40;6.63;;;3.40;;
6832;SDS011;3454;42.654;23.378;2023-03-15T09:29:06;7.93;;;3.33;;
6832;SDS011;3454;42.654;23.378;2023-03-15T09:31:33;4.90;;;2.77;;
6832;SDS011;3454;42.654;23.378;2023-03-15T09:33:59;8.17;;;3.07;;
6832;SDS011;3454;42.654;23.378;2023-03-15T09:36:25;8.00;;;3.43;;
6832;SDS011;3454;42.654;23.378;2023-03-15T09:38:50;3.65;;;2.63;;
6832;SDS011;3454;42.654;23.378;2023-03-15T09:41:33;9.20;;;3.38;;
6832;SDS011;3454;42.654;23.378;2023-03-15T09:46:36;8.05;;;4.35;;
6832;SDS011;3454;42.654;23.378;2023-03-15T09:49:08;7.25;;;4.40;;
6832;SDS011;3454;42.654;23.378;2023-03-15T09:55:04;9.68;;;3.80;;
6832;SDS011;3454;42.654;23.378;2023-03-15T09:57:42;7.38;;;3.65;;
6832;SDS011;3454;42.654;23.378;2023-03-15T10:00:12;11.50;;;3.75;;
6832;SDS011;3454;42.654;23.378;2023-03-15T10:02:42;3.70;;;3.33;;
6832;SDS011;3454;42.654;23.378;2023-03-15T10:05:17;5.63;;;3.45;;
6832;SDS011;3454;42.654;23.378;2023-03-15T10:07:49;6.97;;;3.78;;
6832;SDS011;3454;42.654;23.378;2023-03-15T10:10:16;4.93;;;2.90;;
6832;SDS011;3454;42.654;23.378;2023-03-15T10:13:12;5.05;;;2.90;;
6832;SDS011;3454;42.654;23.378;2023-03-15T10:18:41;4.82;;;2.92;;
6832;SDS011;3454;42.654;23.378;2023-03-15T10:24:19;6.00;;;2.92;;
6832;SDS011;3454;42.654;23.378;2023-03-15T10:26:49;5.40;;;3.03;;
6832;SDS011;3454;42.654;23.378;2023-03-15T10:29:18;5.30;;;2.75;;
6832;SDS011;3454;42.654;23.378;2023-03-15T10:31:45;4.97;;;2.90;;
6832;SDS011;3454;42.654;23.378;2023-03-15T10:34:11;5.67;;;3.40;;
6832;SDS011;3454;42.654;23.378;2023-03-15T10:36:45;4.97;;;3.08;;
6832;SDS011;3454;42.654;23.378;2023-03-15T10:39:14;6.95;;;3.33;;
6832;SDS011;3454;42.654;23.378;2023-03-15T10:41:41;6.75;;;3.58;;
6832;SDS011;3454;42.654;23.378;2023-03-15T10:44:13;8.05;;;3.72;;
6832;SDS011;3454;42.654;23.378;2023-03-15T10:46:43;6.20;;;2.75;;
6832;SDS011;3454;42.654;23.378;2023-03-15T10:49:31;5.13;;;3.33;;
6832;SDS011;3454;42.654;23.378;2023-03-15T10:51:59;4.23;;;2.83;;
6832;SDS011;3454;42.654;23.378;2023-03-15T10:54:25;5.10;;;3.00;;
6832;SDS011;3454;42.654;23.378;2023-03-15T10:57:02;5.53;;;3.90;;
6832;SDS011;3454;42.654;23.378;2023-03-15T10:59:31;9.88;;;3.70;;
6832;SDS011;3454;42.654;23.378;2023-03-15T11:04:46;4.47;;;3.33;;
6832;SDS011;3454;42.654;23.378;2023-03-15T11:07:14;11.13;;;6.63;;
6832;SDS011;3454;42.654;23.378;2023-03-15T11:09:41;6.67;;;4.00;;
6832;SDS011;3454;42.654;23.378;2023-03-15T11:12:09;9.97;;;3.30;;
6832;SDS011;3454;42.654;23.378;2023-03-15T11:14:42;7.07;;;2.90;;
6832;SDS011;3454;42.654;23.378;2023-03-15T11:17:23;8.33;;;3.20;;
6832;SDS011;3454;42.654;23.378;2023-03-15T11:19:58;3.87;;;2.67;;
6832;SDS011;3454;42.654;23.378;2023-03-15T11:22:37;5.17;;;2.80;;
6832;SDS011;3454;42.654;23.378;2023-03-15T11:25:03;9.37;;;3.40;;
6832;SDS011;3454;42.654;23.378;2023-03-15T11:27:30;9.13;;;2.93;;
6832;SDS011;3454;42.654;23.378;2023-03-15T11:29:56;6.17;;;2.93;;
6832;SDS011;3454;42.654;23.378;2023-03-15T11:32:26;5.30;;;3.00;;
6832;SDS011;3454;42.654;23.378;2023-03-15T11:37:51;7.40;;;3.00;;
6832;SDS011;3454;42.654;23.378;2023-03-15T11:48:05;5.97;;;3.23;;
6832;SDS011;3454;42.654;23.378;2023-03-15T11:50:43;5.17;;;3.13;;
6832;SDS011;3454;42.654;23.378;2023-03-15T11:53:09;6.70;;;2.90;;
6832;SDS011;3454;42.654;23.378;2023-03-15T11:55:40;6.10;;;3.60;;
6832;SDS011;3454;42.654;23.378;2023-03-15T11:58:34;4.87;;;3.20;;
6832;SDS011;3454;42.654;23.378;2023-03-15T12:01:06;5.93;;;2.70;;
6832;SDS011;3454;42.654;23.378;2023-03-15T12:03:36;7.43;;;3.20;;
6832;SDS011;3454;42.654;23.378;2023-03-15T12:06:04;5.33;;;3.57;;
6832;SDS011;3454;42.654;23.378;2023-03-15T12:10:58;7.80;;;3.20;;
6832;SDS011;3454;42.654;23.378;2023-03-15T12:13:29;7.67;;;2.97;;
6832;SDS011;3454;42.654;23.378;2023-03-15T12:15:56;5.60;;;3.20;;
6832;SDS011;3454;42.654;23.378;2023-03-15T12:18:27;5.47;;;3.40;;
6832;SDS011;3454;42.654;23.378;2023-03-15T12:21:05;5.50;;;2.90;;
6832;SDS011;3454;42.654;23.378;2023-03-15T12:23:34;5.73;;;2.90;;
6832;SDS011;3454;42.654;23.378;2023-03-15T12:28:37;6.30;;;2.77;;
6832;SDS011;3454;42.654;23.378;2023-03-15T12:31:07;6.07;;;3.22;;
6832;SDS011;3454;42.654;23.378;2023-03-15T12:33:58;9.32;;;2.97;;
6832;SDS011;3454;42.654;23.378;2023-03-15T12:41:42;4.87;;;2.87;;
6832;SDS011;3454;42.654;23.378;2023-03-15T12:47:07;9.20;;;3.00;;
6832;SDS011;3454;42.654;23.378;2023-03-15T12:49:36;12.33;;;5.87;;
6832;SDS011;3454;42.654;23.378;2023-03-15T12:54:40;6.07;;;3.22;;
6832;SDS011;3454;42.654;23.378;2023-03-15T12:57:11;4.55;;;2.95;;
6832;SDS011;3454;42.654;23.378;2023-03-15T12:59:44;9.60;;;3.73;;
6832;SDS011;3454;42.654;23.378;2023-03-15T13:02:25;6.53;;;3.45;;
6832;SDS011;3454;42.654;23.378;2023-03-15T13:04:57;4.57;;;3.07;;
6832;SDS011;3454;42.654;23.378;2023-03-15T13:16:24;4.43;;;3.20;;
6832;SDS011;3454;42.654;23.378;2023-03-15T13:19:05;5.60;;;3.27;;
6832;SDS011;3454;42.654;23.378;2023-03-15T13:24:53;8.25;;;3.53;;
6832;SDS011;3454;42.654;23.378;2023-03-15T13:29:53;6.53;;;3.42;;
6832;SDS011;3454;42.654;23.378;2023-03-15T13:32:20;4.82;;;3.08;;
6832;SDS011;3454;42.654;23.378;2023-03-15T13:34:47;5.60;;;3.13;;
6832;SDS011;3454;42.654;23.378;2023-03-15T13:37:19;7.13;;;3.87;;
6832;SDS011;3454;42.654;23.378;2023-03-15T13:42:21;12.33;;;4.63;;
6832;SDS011;3454;42.654;23.378;2023-03-15T13:45:05;8.83;;;3.97;;
6832;SDS011;3454;42.654;23.378;2023-03-15T13:47:36;8.47;;;4.03;;
6832;SDS011;3454;42.654;23.378;2023-03-15T13:50:04;9.48;;;4.53;;
6832;SDS011;3454;42.654;23.378;2023-03-15T13:52:30;6.72;;;4.43;;
6832;SDS011;3454;42.654;23.378;2023-03-15T13:54:56;9.48;;;4.07;;
6832;SDS011;3454;42.654;23.378;2023-03-15T13:57:22;6.72;;;4.75;;
6832;SDS011;3454;42.654;23.378;2023-03-15T14:02:36;10.07;;;4.90;;
6832;SDS011;3454;42.654;23.378;2023-03-15T14:05:04;7.90;;;4.68;;
6832;SDS011;3454;42.654;23.378;2023-03-15T14:12:48;8.18;;;4.32;;
6832;SDS011;3454;42.654;23.378;2023-03-15T14:15:34;8.07;;;4.85;;
6832;SDS011;3454;42.654;23.378;2023-03-15T14:18:03;9.07;;;5.47;;
6832;SDS011;3454;42.654;23.378;2023-03-15T14:21:15;9.23;;;5.57;;
6832;SDS011;3454;42.654;23.378;2023-03-15T14:23:40;10.07;;;5.32;;
6832;SDS011;3454;42.654;23.378;2023-03-15T14:29:04;10.83;;;5.57;;
6832;SDS011;3454;42.654;23.378;2023-03-15T14:31:36;7.80;;;4.83;;
6832;SDS011;3454;42.654;23.378;2023-03-15T14:34:15;8.77;;;5.00;;
6832;SDS011;3454;42.654;23.378;2023-03-15T14:36:48;11.00;;;5.77;;
6832;SDS011;3454;42.654;23.378;2023-03-15T14:42:04;8.60;;;5.47;;
6832;SDS011;3454;42.654;23.378;2023-03-15T14:44:31;8.63;;;5.70;;
6832;SDS011;3454;42.654;23.378;2023-03-15T14:46:56;9.37;;;4.60;;
6832;SDS011;3454;42.654;23.378;2023-03-15T14:49:27;8.67;;;4.83;;
6832;SDS011;3454;42.654;23.378;2023-03-15T14:52:00;10.53;;;3.80;;
6832;SDS011;3454;42.654;23.378;2023-03-15T14:54:29;6.50;;;3.83;;
6832;SDS011;3454;42.654;23.378;2023-03-15T14:56:56;9.13;;;4.27;;
6832;SDS011;3454;42.654;23.378;2023-03-15T14:59:21;8.50;;;4.50;;
6832;SDS011;3454;42.654;23.378;2023-03-15T15:01:57;9.60;;;5.18;;
6832;SDS011;3454;42.654;23.378;2023-03-15T15:04:25;8.17;;;4.23;;
6832;SDS011;3454;42.654;23.378;2023-03-15T15:06:56;10.77;;;4.10;;
6832;SDS011;3454;42.654;23.378;2023-03-15T15:09:22;8.27;;;4.00;;
6832;SDS011;3454;42.654;23.378;2023-03-15T15:11:50;6.90;;;3.83;;
6832;SDS011;3454;42.654;23.378;2023-03-15T15:14:16;13.17;;;4.53;;
6832;SDS011;3454;42.654;23.378;2023-03-15T15:16:42;9.30;;;4.10;;
6832;SDS011;3454;42.654;23.378;2023-03-15T15:19:08;8.87;;;4.33;;
6832;SDS011;3454;42.654;23.378;2023-03-15T15:21:34;7.20;;;3.67;;
6832;SDS011;3454;42.654;23.378;2023-03-15T15:24:04;6.47;;;4.20;;
6832;SDS011;3454;42.654;23.378;2023-03-15T15:26:37;7.53;;;4.10;;
6832;SDS011;3454;42.654;23.378;2023-03-15T15:29:02;6.40;;;4.00;;
6832;SDS011;3454;42.654;23.378;2023-03-15T15:31:28;10.40;;;4.50;;
6832;SDS011;3454;42.654;23.378;2023-03-15T15:33:58;6.73;;;3.73;;
6832;SDS011;3454;42.654;23.378;2023-03-15T15:36:25;14.30;;;5.03;;
6832;SDS011;3454;42.654;23.378;2023-03-15T15:38:53;7.40;;;3.73;;
6832;SDS011;3454;42.654;23.378;2023-03-15T15:41:23;9.90;;;4.30;;
6832;SDS011;3454;42.654;23.378;2023-03-15T15:43:50;6.67;;;4.40;;
6832;SDS011;3454;42.654;23.378;2023-03-15T15:46:17;11.33;;;4.43;;
6832;SDS011;3454;42.654;23.378;2023-03-15T15:48:42;9.40;;;4.20;;
6832;SDS011;3454;42.654;23.378;2023-03-15T15:51:19;9.90;;;4.60;;
6832;SDS011;3454;42.654;23.378;2023-03-15T15:53:45;7.83;;;4.20;;
6832;SDS011;3454;42.654;23.378;2023-03-15T15:56:10;9.47;;;4.97;;
6832;SDS011;3454;42.654;23.378;2023-03-15T15:58:37;10.03;;;5.07;;
6832;SDS011;3454;42.654;23.378;2023-03-15T16:01:05;9.60;;;4.40;;
6832;SDS011;3454;42.654;23.378;2023-03-15T16:03:31;10.87;;;4.63;;
6832;SDS011;3454;42.654;23.378;2023-03-15T16:05:56;7.57;;;4.40;;
6832;SDS011;3454;42.654;23.378;2023-03-15T16:08:22;10.85;;;4.22;;
6832;SDS011;3454;42.654;23.378;2023-03-15T16:10:49;8.70;;;4.70;;
6832;SDS011;3454;42.654;23.378;2023-03-15T16:13:15;7.97;;;4.40;;
6832;SDS011;3454;42.654;23.378;2023-03-15T16:15:40;9.03;;;4.67;;
6832;SDS011;3454;42.654;23.378;2023-03-15T16:18:09;11.20;;;4.77;;
6832;SDS011;3454;42.654;23.378;2023-03-15T16:20:36;8.50;;;4.60;;
6832;SDS011;3454;42.654;23.378;2023-03-15T16:23:02;8.87;;;4.53;;